Terminal Aerodrome Forecast
Issued by NWS Upton, NY

Home | Current Version | Previous Version | Text Only | Print | Product List | Glossary On
Versions: 1 2 3 4 5 6 7 8 9 10 11 12 13 14 15 16 17 18 19 20 21 22 23 24 25
000
FTUS41 KOKX 052320
TAFBDR
TAF
KBDR 052320Z 0600/0624 22005KT P6SM SCT250
     FM060200 VRB01KT P6SM SCT250
      TEMPO 0607/0611 5SM BR
     FM061300 19008KT P6SM FEW040 BKN250=

USA.gov is the U.S. government's official web portal to all federal, state and local government web resources and services.